Time;durP1;ratioP1;P1;durP2;ratioP2;P2;SDS_P1;SDS_P2;PMS_P1;PMS_P2;Temp;Humidity;BMP_temperature;BMP_pressure;BME280_temperature;BME280_humidity;BME280_pressure;Samples;Min_cycle;Max_cycle;Signal;HPM_P1;HPM_P2
2022/03/12 00:01:47;;;;;;;0.20;0.20;;;2.80;94.60;;;;;;5020702;28;20626;-78
2022/03/12 00:04:15;;;;;;;0.20;0.20;;;2.80;94.60;;;;;;5040939;28;20653;-78
2022/03/12 00:06:42;;;;;;;0.20;0.20;;;2.80;94.60;;;;;;5025246;28;20665;-78
2022/03/12 00:09:11;;;;;;;0.20;0.20;;;2.80;94.60;;;;;;5019016;28;21226;-79
2022/03/12 00:11:51;;;;;;;0.20;0.20;;;2.80;94.70;;;;;;5017954;28;20736;-78
2022/03/12 00:14:22;;;;;;;0.20;0.20;;;2.80;94.70;;;;;;5024437;28;20674;-78
2022/03/12 00:16:50;;;;;;;0.20;0.20;;;2.70;94.70;;;;;;5045914;28;20632;-77
2022/03/12 00:19:24;;;;;;;0.20;0.20;;;2.70;94.70;;;;;;5018826;28;20635;-78
2022/03/12 00:21:51;;;;;;;0.20;0.20;;;2.70;94.80;;;;;;5021878;28;20637;-77
2022/03/12 00:24:19;;;;;;;0.20;0.20;;;2.60;94.70;;;;;;5043413;28;20653;-78
2022/03/12 00:26:47;;;;;;;0.20;0.20;;;2.60;94.70;;;;;;5043563;28;20618;-78
2022/03/12 00:29:15;;;;;;;0.20;0.20;;;2.60;94.60;;;;;;5022851;28;20666;-77
2022/03/12 00:31:43;;;;;;;0.20;0.20;;;2.60;94.70;;;;;;5024230;28;20618;-78
2022/03/12 00:34:11;;;;;;;0.20;0.20;;;2.60;94.70;;;;;;5022701;28;20761;-78
2022/03/12 00:36:38;;;;;;;0.20;0.20;;;2.60;99.90;;;;;;5021613;28;20713;-78
2022/03/12 00:39:09;;;;;;;0.20;0.20;;;2.60;99.90;;;;;;5025982;28;20738;-78
2022/03/12 00:41:42;;;;;;;0.20;0.20;;;2.60;99.90;;;;;;5025832;28;20688;-77
2022/03/12 00:44:10;;;;;;;0.20;0.20;;;;;;;;;;5025024;28;20668;-78
2022/03/12 00:46:37;;;;;;;0.20;0.20;;;2.50;94.70;;;;;;5020906;28;20625;-77
2022/03/12 00:49:04;;;;;;;0.20;0.20;;;2.40;94.90;;;;;;5024084;28;20636;-78
2022/03/12 00:51:32;;;;;;;0.20;0.20;;;2.40;94.70;;;;;;5023446;28;20618;-78
2022/03/12 00:53:59;;;;;;;0.20;0.20;;;2.40;94.90;;;;;;5025584;28;21031;-77
2022/03/12 00:56:26;;;;;;;0.20;0.20;;;;;;;;;;5022608;28;20626;-78
2022/03/12 00:58:55;;;;;;;0.20;0.20;;;2.40;94.70;;;;;;5027016;28;20785;-78
2022/03/12 01:01:23;;;;;;;0.20;0.20;;;2.30;95.20;;;;;;5022411;28;20637;-78
2022/03/12 01:03:52;;;;;;;0.20;0.20;;;2.30;95.00;;;;;;5027179;28;20754;-78
2022/03/12 01:06:19;;;;;;;0.20;0.20;;;2.20;99.90;;;;;;5020296;28;20633;-78
2022/03/12 01:08:46;;;;;;;0.20;0.20;;;2.20;95.20;;;;;;5022938;28;20639;-77
2022/03/12 01:11:14;;;;;;;0.20;0.20;;;;;;;;;;5022599;28;20662;-78
2022/03/12 01:13:42;;;;;;;0.20;0.20;;;;;;;;;;5021530;28;20676;-78
2022/03/12 01:16:11;;;;;;;0.20;0.20;;;;;;;;;;5020401;28;20625;-78
2022/03/12 01:18:39;;;;;;;0.20;0.20;;;;;;;;;;5026269;28;20711;-78
2022/03/12 01:21:08;;;;;;;0.20;0.20;;;;;;;;;;5020670;28;20665;-77
2022/03/12 01:23:36;;;;;;;0.20;0.20;;;;;;;;;;5025107;28;20661;-78
2022/03/12 01:26:04;;;;;;;0.20;0.20;;;;;;;;;;5038986;28;20625;-77
2022/03/12 01:28:31;;;;;;;0.20;0.20;;;;;;;;;;5023920;28;20618;-78
2022/03/12 01:30:59;;;;;;;0.20;0.20;;;;;;;;;;5021337;28;20649;-78
2022/03/12 01:33:28;;;;;;;0.20;0.20;;;;;;;;;;5022144;28;20665;-78
2022/03/12 01:35:56;;;;;;;0.20;0.20;;;;;;;;;;5022358;28;20631;-78
2022/03/12 01:38:29;;;;;;;0.20;0.20;;;;;;;;;;5022394;28;20653;-78
2022/03/12 01:40:56;;;;;;;0.20;0.20;;;;;;;;;;5038498;28;20618;-78
2022/03/12 01:43:26;;;;;;;0.27;0.27;;;;;;;;;;5024468;28;20657;-78
2022/03/12 01:45:53;;;;;;;0.20;0.20;;;;;;;;;;5025644;28;20618;-77
2022/03/12 01:48:21;;;;;;;0.20;0.20;;;;;;;;;;5025247;28;20640;-78
2022/03/12 01:50:50;;;;;;;0.20;0.20;;;;;;;;;;5022414;28;20630;-78
2022/03/12 01:53:18;;;;;;;0.20;0.20;;;;;;;;;;5038731;28;20684;-78
2022/03/12 01:55:46;;;;;;;0.20;0.20;;;;;;;;;;5043022;28;20662;-77
2022/03/12 01:58:14;;;;;;;0.20;0.20;;;;;;;;;;5025726;28;20622;-78
2022/03/12 02:00:43;;;;;;;0.20;0.20;;;;;;;;;;5023146;28;20634;-77
2022/03/12 02:03:11;;;;;;;0.20;0.20;;;;;;;;;;5022171;28;20654;-78
2022/03/12 02:05:38;;;;;;;0.30;0.30;;;;;;;;;;5024939;28;20626;-77
2022/03/12 02:08:07;;;;;;;0.20;0.20;;;;;;;;;;5023509;28;20629;-78
2022/03/12 02:10:36;;;;;;;0.20;0.20;;;;;;;;;;5025086;28;20687;-77
2022/03/12 02:13:05;;;;;;;0.10;0.10;;;;;;;;;;5025472;28;20653;-78
2022/03/12 02:15:33;;;;;;;0.20;0.20;;;;;;;;;;5043575;28;20689;-77
2022/03/12 02:18:01;;;;;;;0.23;0.23;;;;;;;;;;5019867;28;20657;-78
2022/03/12 02:20:28;;;;;;;0.20;0.20;;;;;;;;;;5023397;28;20626;-76
2022/03/12 02:22:55;;;;;;;0.20;0.20;;;;;;;;;;5021816;28;20758;-78
2022/03/12 02:25:28;;;;;;;0.20;0.20;;;;;;;;;;5021257;28;20622;-76
2022/03/12 02:27:57;;;;;;;0.10;0.10;;;;;;;;;;5023604;28;20660;-76
2022/03/12 02:30:25;;;;;;;0.30;0.30;;;;;;;;;;5026383;28;20716;-76
2022/03/12 02:32:58;;;;;;;0.20;0.20;;;;;;;;;;5025380;28;20657;-77
2022/03/12 02:35:26;;;;;;;0.20;0.20;;;;;;;;;;5025773;28;20664;-77
2022/03/12 02:37:54;;;;;;;0.20;0.20;;;;;;;;;;5025439;28;20636;-77
2022/03/12 02:40:21;;;;;;;0.30;0.30;;;;;;;;;;5024206;28;20741;-76
2022/03/12 02:42:51;;;;;;;0.20;0.20;;;;;;;;;;5026644;28;20637;-76
2022/03/12 02:45:23;;;;;;;0.20;0.20;;;;;;;;;;5024986;28;20626;-77
2022/03/12 02:47:50;;;;;;;0.30;0.30;;;;;;;;;;5046223;28;21139;-76
2022/03/12 02:50:18;;;;;;;0.20;0.20;;;;;;;;;;5025558;28;20631;-76
2022/03/12 02:52:46;;;;;;;0.20;0.20;;;;;;;;;;5025860;28;20703;-77
2022/03/12 02:55:14;;;;;;;0.20;0.20;;;;;;;;;;5044670;28;21081;-77
2022/03/12 02:57:43;;;;;;;0.20;0.20;;;;;;;;;;5027905;28;20622;-77
2022/03/12 03:00:13;;;;;;;0.23;0.23;;;;;;;;;;5027487;28;20638;-77
2022/03/12 03:02:41;;;;;;;0.30;0.30;;;;;;;;;;5026382;28;20628;-77
2022/03/12 03:05:15;;;;;;;0.20;0.20;;;;;;;;;;5021970;28;20618;-78
2022/03/12 03:07:43;;;;;;;0.20;0.20;;;;;;;;;;5027849;28;20610;-76
2022/03/12 03:10:10;;;;;;;0.20;0.20;;;;;;;;;;5022509;28;20634;-75
2022/03/12 03:12:38;;;;;;;0.20;0.20;;;;;;;;;;5028942;28;20713;-79
2022/03/12 03:15:05;;;;;;;0.30;0.30;;;;;;;;;;5046122;28;20685;-76
2022/03/12 03:17:35;;;;;;;0.20;0.20;;;;;;;;;;5044904;28;21017;-76
2022/03/12 03:20:02;;;;;;;0.20;0.20;;;;;;;;;;5044174;28;21139;-77
2022/03/12 03:22:29;;;;;;;0.20;0.20;;;;;;;;;;5028567;28;20656;-78
2022/03/12 03:24:57;;;;;;;0.20;0.20;;;;;;;;;;5026573;28;20707;-77
2022/03/12 03:27:24;;;;;;;0.20;0.20;;;;;;;;;;5026197;28;20617;-77
2022/03/12 03:29:51;;;;;;;0.20;0.20;;;;;;;;;;5026060;28;20634;-77
2022/03/12 03:32:19;;;;;;;0.20;0.20;;;;;;;;;;5024205;28;20725;-77
2022/03/12 03:34:47;;;;;;;0.20;0.20;;;;;;;;;;5045712;28;20692;-77
2022/03/12 03:37:15;;;;;;;0.27;0.27;;;;;;;;;;5025436;28;20729;-77
2022/03/12 03:39:42;;;;;;;0.20;0.20;;;1.00;95.90;;;;;;5021069;28;20630;-76
2022/03/12 03:42:09;;;;;;;0.20;0.20;;;1.00;96.20;;;;;;5026538;28;20656;-77
2022/03/12 03:44:36;;;;;;;0.20;0.20;;;0.90;96.10;;;;;;5018753;28;20658;-76
2022/03/12 03:47:04;;;;;;;0.20;0.20;;;0.90;96.00;;;;;;5025975;28;20633;-76
2022/03/12 03:49:31;;;;;;;0.20;0.20;;;0.80;96.10;;;;;;5025011;28;20622;-78
2022/03/12 03:51:59;;;;;;;0.20;0.20;;;0.80;96.40;;;;;;5024043;28;20661;-77
2022/03/12 03:54:29;;;;;;;0.30;0.30;;;0.80;96.40;;;;;;5026778;28;20277;-77
2022/03/12 03:56:56;;;;;;;0.20;0.20;;;0.80;96.50;;;;;;5042543;28;20724;-76
2022/03/12 03:59:23;;;;;;;0.30;0.30;;;0.70;96.40;;;;;;5040079;28;20219;-76
2022/03/12 04:01:50;;;;;;;0.20;0.20;;;0.70;96.40;;;;;;5027898;28;20729;-77
2022/03/12 04:04:17;;;;;;;0.20;0.20;;;0.70;96.50;;;;;;5044465;28;20633;-76
2022/03/12 04:06:44;;;;;;;0.20;0.20;;;0.70;96.40;;;;;;5024597;28;21184;-76
2022/03/12 04:09:12;;;;;;;0.20;0.20;;;0.70;96.30;;;;;;5023162;28;21035;-76
2022/03/12 04:11:42;;;;;;;0.22;0.22;;;0.70;96.30;;;;;;5045594;28;20616;-76
2022/03/12 04:14:09;;;;;;;0.20;0.20;;;0.70;96.20;;;;;;5024047;28;20314;-76
2022/03/12 04:16:37;;;;;;;0.20;0.20;;;0.70;96.20;;;;;;5027301;28;20626;-77
2022/03/12 04:19:05;;;;;;;0.20;0.20;;;0.80;96.10;;;;;;5041603;28;20203;-77
2022/03/12 04:21:33;;;;;;;0.20;0.20;;;0.80;96.10;;;;;;5025422;28;20630;-77
2022/03/12 04:24:00;;;;;;;0.20;0.20;;;0.80;96.10;;;;;;5022375;28;20649;-78
2022/03/12 04:26:30;;;;;;;0.20;0.20;;;0.80;96.00;;;;;;5042399;28;20196;-77
2022/03/12 04:28:58;;;;;;;0.20;0.20;;;0.80;96.00;;;;;;5027347;28;21000;-76
2022/03/12 04:31:25;;;;;;;0.20;0.20;;;0.80;96.10;;;;;;5027190;28;20292;-77
2022/03/12 04:33:52;;;;;;;0.20;0.20;;;0.80;96.10;;;;;;5025031;28;20219;-77
2022/03/12 04:36:19;;;;;;;0.20;0.20;;;0.80;96.00;;;;;;5027585;28;20661;-77
2022/03/12 04:38:48;;;;;;;0.20;0.20;;;0.80;96.10;;;;;;5041825;28;20632;-77
2022/03/12 04:41:19;;;;;;;0.30;0.30;;;0.80;96.10;;;;;;5020148;28;20621;-77
2022/03/12 04:43:51;;;;;;;0.20;0.20;;;0.80;96.00;;;;;;5024971;28;20227;-78
2022/03/12 04:46:18;;;;;;;0.20;0.20;;;0.80;96.00;;;;;;5025281;28;20638;-76
2022/03/12 04:48:45;;;;;;;0.20;0.20;;;0.80;96.00;;;;;;5027179;28;20614;-77
2022/03/12 04:51:13;;;;;;;0.20;0.20;;;0.80;96.10;;;;;;5026418;28;20247;-77
2022/03/12 04:53:40;;;;;;;0.30;0.30;;;0.80;96.20;;;;;;5026790;28;20804;-77
2022/03/12 04:56:09;;;;;;;0.20;0.20;;;0.70;96.20;;;;;;5043938;28;20654;-78
2022/03/12 04:58:35;;;;;;;0.20;0.20;;;0.70;96.30;;;;;;5026926;28;20191;-76
2022/03/12 05:01:05;;;;;;;0.25;0.25;;;0.70;96.40;;;;;;5043901;28;20613;-76
2022/03/12 05:03:32;;;;;;;0.20;0.20;;;0.70;96.50;;;;;;5026369;28;20226;-76
2022/03/12 05:06:02;;;;;;;0.20;0.20;;;0.70;96.60;;;;;;5019715;28;20192;-77
2022/03/12 05:08:33;;;;;;;0.20;0.20;;;0.60;96.60;;;;;;5021724;28;20279;-77
2022/03/12 05:11:00;;;;;;;0.20;0.20;;;0.60;96.60;;;;;;5023381;28;20208;-77
2022/03/12 05:13:27;;;;;;;0.20;0.20;;;0.60;96.80;;;;;;5026217;28;20569;-76
2022/03/12 05:15:56;;;;;;;0.20;0.20;;;0.60;96.70;;;;;;5044569;28;20672;-77
2022/03/12 05:18:26;;;;;;;0.20;0.20;;;0.60;96.90;;;;;;5026428;28;20621;-77
2022/03/12 05:20:54;;;;;;;0.20;0.20;;;0.50;97.20;;;;;;5036333;28;20202;-76
2022/03/12 05:23:24;;;;;;;0.20;0.20;;;0.50;96.90;;;;;;5026402;28;20226;-76
2022/03/12 05:25:54;;;;;;;0.20;0.20;;;0.50;97.00;;;;;;5043844;28;20294;-77
2022/03/12 05:28:26;;;;;;;0.20;0.20;;;0.50;97.00;;;;;;5025590;28;20219;-77
2022/03/12 05:30:56;;;;;;;0.20;0.20;;;0.50;97.20;;;;;;5025868;28;20207;-77
2022/03/12 05:33:26;;;;;;;0.22;0.22;;;0.40;97.10;;;;;;5022864;28;20231;-76
2022/03/12 05:35:54;;;;;;;0.20;0.20;;;0.40;97.20;;;;;;5023351;28;20610;-76
2022/03/12 05:38:23;;;;;;;0.20;0.20;;;0.40;97.10;;;;;;5024582;28;20239;-76
2022/03/12 05:40:50;;;;;;;0.30;0.30;;;0.40;97.20;;;;;;5041185;28;20227;-75
2022/03/12 05:43:18;;;;;;;0.20;0.20;;;0.40;97.30;;;;;;5044440;28;20223;-76
2022/03/12 05:45:48;;;;;;;0.20;0.20;;;0.40;97.30;;;;;;5026546;28;20227;-77
2022/03/12 05:48:16;;;;;;;0.25;0.25;;;0.30;97.40;;;;;;5028031;28;20218;-77
2022/03/12 05:50:48;;;;;;;0.20;0.20;;;0.30;97.60;;;;;;5026560;28;20191;-78
2022/03/12 05:53:18;;;;;;;0.20;0.20;;;0.30;97.50;;;;;;5020371;28;20235;-76
2022/03/12 05:55:46;;;;;;;0.30;0.30;;;0.30;97.70;;;;;;5025301;28;20242;-77
2022/03/12 05:58:15;;;;;;;0.20;0.20;;;0.30;97.60;;;;;;5025924;28;20204;-78
2022/03/12 06:00:45;;;;;;;0.20;0.20;;;;;;;;;;5026484;28;20226;-78
2022/03/12 06:03:13;;;;;;;0.20;0.20;;;0.30;97.30;;;;;;5022265;28;20224;-79
2022/03/12 06:05:43;;;;;;;0.20;0.20;;;0.40;97.50;;;;;;5029383;28;20195;-78
2022/03/12 06:08:21;;;;;;;0.20;0.20;;;0.70;97.20;;;;;;5026316;28;20271;-78
2022/03/12 06:10:50;;;;;;;0.20;0.20;;;0.70;97.40;;;;;;5025207;28;20222;-78
2022/03/12 06:13:17;;;;;;;0.22;0.22;;;0.80;97.90;;;;;;5026244;28;20227;-78
2022/03/12 06:15:54;;;;;;;0.20;0.20;;;0.90;97.40;;;;;;5025103;28;20219;-77
2022/03/12 06:18:24;;;;;;;0.20;0.20;;;1.10;97.20;;;;;;5027725;28;20369;-78
2022/03/12 06:20:51;;;;;;;0.20;0.20;;;1.20;97.10;;;;;;5019952;28;20207;-77
2022/03/12 06:23:19;;;;;;;0.20;0.20;;;1.50;96.90;;;;;;5029336;28;20231;-77
2022/03/12 06:25:47;;;;;;;0.20;0.20;;;1.70;97.00;;;;;;5029755;28;20195;-77
2022/03/12 06:28:14;;;;;;;0.30;0.30;;;2.00;97.50;;;;;;5028540;28;20641;-76
2022/03/12 06:30:42;;;;;;;0.20;0.20;;;2.00;96.60;;;;;;5028732;28;20610;-76
2022/03/12 06:33:09;;;;;;;0.20;0.20;;;2.10;96.80;;;;;;5045583;28;20638;-76
2022/03/12 06:35:37;;;;;;;0.20;0.20;;;2.20;96.40;;;;;;5028668;28;20689;-76
2022/03/12 06:38:04;;;;;;;0.27;0.27;;;2.20;96.20;;;;;;5025530;28;20619;-76
2022/03/12 06:40:32;;;;;;;0.20;0.20;;;2.30;96.50;;;;;;5030121;28;20625;-77
2022/03/12 06:43:00;;;;;;;0.20;0.20;;;2.40;96.30;;;;;;5047452;28;20740;-78
2022/03/12 06:45:28;;;;;;;0.20;0.20;;;2.40;96.10;;;;;;5045416;28;20708;-77
2022/03/12 06:47:56;;;;;;;0.30;0.30;;;2.50;96.10;;;;;;5045502;28;20601;-76
2022/03/12 06:50:26;;;;;;;0.20;0.20;;;2.40;95.70;;;;;;5047145;28;20617;-77
2022/03/12 06:52:55;;;;;;;0.30;0.30;;;2.50;96.10;;;;;;5027210;28;20660;-77
2022/03/12 06:55:24;;;;;;;0.30;0.30;;;2.60;95.80;;;;;;5046885;28;20693;-77
2022/03/12 06:57:53;;;;;;;0.20;0.20;;;2.60;95.40;;;;;;5028294;28;20625;-76
2022/03/12 07:00:24;;;;;;;0.30;0.30;;;2.60;95.30;;;;;;5028784;28;20637;-76
2022/03/12 07:02:52;;;;;;;0.30;0.30;;;2.70;95.50;;;;;;5019143;28;20639;-76
2022/03/12 07:05:19;;;;;;;0.20;0.20;;;2.70;95.60;;;;;;5027633;28;20633;-78
2022/03/12 07:07:47;;;;;;;0.30;0.30;;;2.80;95.70;;;;;;5027860;28;20613;-77
2022/03/12 07:10:15;;;;;;;0.20;0.20;;;2.90;95.60;;;;;;5025641;28;20691;-77
2022/03/12 07:12:46;;;;;;;0.20;0.20;;;3.10;95.50;;;;;;5023493;28;20658;-76
2022/03/12 07:15:17;;;;;;;0.20;0.20;;;3.30;95.50;;;;;;5027828;28;20637;-78
2022/03/12 07:17:44;;;;;;;0.30;0.30;;;3.50;95.20;;;;;;5028552;28;20630;-77
2022/03/12 07:20:12;;;;;;;0.20;0.20;;;3.60;94.90;;;;;;5025387;28;20630;-76
2022/03/12 07:22:40;;;;;;;0.30;0.30;;;3.70;94.80;;;;;;5028497;28;20628;-77
2022/03/12 07:25:09;;;;;;;0.27;0.27;;;3.80;94.60;;;;;;5025273;28;20654;-77
2022/03/12 07:27:36;;;;;;;0.20;0.20;;;4.00;94.80;;;;;;5027738;28;20629;-76
2022/03/12 07:30:08;;;;;;;0.20;0.20;;;4.30;94.50;;;;;;5042691;28;20625;-77
2022/03/12 07:32:39;;;;;;;0.20;0.20;;;4.50;94.20;;;;;;5028974;28;20669;-77
2022/03/12 07:35:07;;;;;;;0.20;0.20;;;4.50;94.00;;;;;;5028390;28;20629;-78
2022/03/12 07:37:34;;;;;;;0.20;0.20;;;4.70;94.40;;;;;;5028273;28;20621;-77
2022/03/12 07:40:02;;;;;;;0.20;0.20;;;4.90;94.10;;;;;;5027249;28;20630;-78
2022/03/12 07:42:29;;;;;;;0.27;0.27;;;5.10;93.70;;;;;;5025864;28;20651;-77
2022/03/12 07:45:02;;;;;;;0.20;0.20;;;5.40;93.70;;;;;;5028639;28;20992;-77
2022/03/12 07:47:30;;;;;;;0.13;0.13;;;5.50;93.60;;;;;;5024771;28;20628;-77
2022/03/12 07:49:58;;;;;;;0.20;0.20;;;5.50;93.10;;;;;;5046534;28;20629;-78
2022/03/12 07:52:25;;;;;;;0.20;0.20;;;5.50;92.90;;;;;;5027715;28;20622;-78
2022/03/12 07:54:52;;;;;;;0.20;0.20;;;5.50;92.90;;;;;;5027491;28;20669;-78
2022/03/12 07:57:26;;;;;;;0.20;0.20;;;5.60;93.10;;;;;;5026919;28;20665;-78
2022/03/12 07:59:53;;;;;;;0.20;0.20;;;5.60;93.00;;;;;;5021400;28;20645;-78
2022/03/12 08:02:22;;;;;;;0.20;0.20;;;5.70;92.80;;;;;;5045264;28;20629;-77
2022/03/12 08:04:49;;;;;;;0.10;0.10;;;5.80;93.00;;;;;;5022858;28;20665;-78
2022/03/12 08:07:18;;;;;;;0.20;0.20;;;6.00;93.00;;;;;;5026575;28;20622;-79
2022/03/12 08:09:46;;;;;;;0.20;0.20;;;6.10;92.40;;;;;;5028819;28;20622;-78
2022/03/12 08:12:15;;;;;;;0.20;0.20;;;6.10;92.10;;;;;;5025671;28;20669;-77
2022/03/12 08:14:45;;;;;;;0.20;0.20;;;6.00;92.10;;;;;;5028263;28;20661;-78
2022/03/12 08:17:12;;;;;;;0.20;0.20;;;6.00;92.10;;;;;;5026141;28;20665;-78
2022/03/12 08:19:39;;;;;;;0.20;0.20;;;6.10;92.30;;;;;;5027537;28;20638;-78
2022/03/12 08:22:07;;;;;;;0.20;0.20;;;6.10;92.10;;;;;;5026737;28;20629;-78
2022/03/12 08:24:35;;;;;;;0.30;0.30;;;6.10;92.30;;;;;;5027601;28;20657;-78
2022/03/12 08:27:03;;;;;;;0.30;0.30;;;6.10;92.30;;;;;;5023821;28;20631;-77
2022/03/12 08:29:31;;;;;;;0.20;0.20;;;6.20;92.00;;;;;;5027655;28;21186;-78
2022/03/12 08:31:58;;;;;;;0.20;0.20;;;6.30;92.10;;;;;;5024924;28;20633;-77
2022/03/12 08:34:26;;;;;;;0.20;0.20;;;6.50;92.30;;;;;;5021171;28;20665;-79
2022/03/12 08:36:53;;;;;;;0.10;0.10;;;6.60;91.50;;;;;;5027701;28;20653;-78
2022/03/12 08:39:20;;;;;;;0.20;0.20;;;6.80;91.60;;;;;;5025698;28;20975;-78
2022/03/12 08:41:49;;;;;;;0.20;0.20;;;6.80;91.20;;;;;;5020894;28;20646;-77
2022/03/12 08:44:16;;;;;;;0.20;0.20;;;6.70;91.10;;;;;;5026605;28;20760;-78
2022/03/12 08:46:46;;;;;;;0.20;0.20;;;6.80;91.50;;;;;;5027363;28;20707;-78
2022/03/12 08:49:16;;;;;;;0.10;0.10;;;6.90;91.30;;;;;;5025575;28;20633;-78
2022/03/12 08:51:44;;;;;;;0.20;0.20;;;7.00;91.90;;;;;;5025093;28;20626;-78
2022/03/12 08:54:11;;;;;;;0.20;0.20;;;7.10;91.80;;;;;;5026749;28;20757;-77
2022/03/12 08:56:38;;;;;;;0.10;0.10;;;7.10;91.40;;;;;;5027887;28;20665;-78
2022/03/12 08:59:08;;;;;;;0.20;0.20;;;7.10;91.30;;;;;;5026017;28;20622;-78
2022/03/12 09:01:38;;;;;;;0.20;0.20;;;7.20;91.30;;;;;;5043488;28;20614;-77
2022/03/12 09:04:07;;;;;;;0.10;0.10;;;7.30;91.70;;;;;;5013989;28;20654;-77
2022/03/12 09:06:36;;;;;;;0.20;0.20;;;7.40;90.40;;;;;;5026316;28;20618;-79
2022/03/12 09:09:04;;;;;;;0.20;0.20;;;7.50;90.70;;;;;;5026936;28;20733;-77
2022/03/12 09:11:31;;;;;;;0.20;0.20;;;7.60;90.50;;;;;;5044786;28;20633;-76
2022/03/12 09:13:58;;;;;;;0.10;0.10;;;7.70;90.40;;;;;;5021620;28;20665;-78
2022/03/12 09:16:27;;;;;;;0.20;0.20;;;7.70;90.10;;;;;;5026879;28;20661;-77
2022/03/12 09:18:54;;;;;;;0.20;0.20;;;7.70;90.10;;;;;;5021398;28;20693;-78
2022/03/12 09:21:23;;;;;;;0.10;0.10;;;7.80;90.10;;;;;;5026044;28;20636;-79
2022/03/12 09:23:52;;;;;;;0.10;0.10;;;7.90;90.20;;;;;;5023448;28;20669;-77
2022/03/12 09:26:22;;;;;;;0.10;0.10;;;8.00;89.60;;;;;;5026269;28;20696;-77
2022/03/12 09:28:49;;;;;;;0.10;0.10;;;8.10;89.50;;;;;;5023683;28;21216;-77
2022/03/12 09:31:17;;;;;;;0.10;0.10;;;8.00;89.60;;;;;;5022867;28;20641;-77
2022/03/12 09:33:47;;;;;;;0.13;0.13;;;8.10;88.80;;;;;;5023549;28;20655;-78
2022/03/12 09:36:18;;;;;;;0.20;0.20;;;8.20;88.80;;;;;;5025086;28;20650;-78
2022/03/12 09:38:46;;;;;;;0.13;0.13;;;8.00;88.40;;;;;;5026298;28;20621;-77
2022/03/12 09:41:17;;;;;;;0.20;0.20;;;8.10;88.80;;;;;;5045330;28;20640;-78
2022/03/12 09:43:44;;;;;;;0.20;0.20;;;8.00;88.50;;;;;;5027467;28;20677;-78
2022/03/12 09:46:12;;;;;;;0.10;0.10;;;8.10;89.00;;;;;;5040940;28;20724;-78
2022/03/12 09:48:40;;;;;;;0.10;0.10;;;8.10;88.40;;;;;;5036924;28;20681;-78
2022/03/12 09:51:10;;;;;;;0.20;0.20;;;8.40;88.60;;;;;;5026800;28;20621;-78
2022/03/12 09:53:39;;;;;;;0.10;0.10;;;8.50;87.10;;;;;;5030546;28;20669;-79
2022/03/12 09:56:07;;;;;;;0.20;0.20;;;;;;;;;;5029912;28;20636;-77
2022/03/12 09:58:36;;;;;;;0.20;0.20;;;;;;;;;;5030666;28;20671;-78
2022/03/12 10:01:05;;;;;;;0.10;0.10;;;;;;;;;;5049642;28;20621;-78
2022/03/12 10:03:32;;;;;;;0.10;0.10;;;8.50;86.60;;;;;;5051971;28;20692;-78
2022/03/12 10:06:01;;;;;;;0.10;0.10;;;9.00;88.20;;;;;;5047771;28;20713;-78
2022/03/12 10:08:33;;;;;;;0.20;0.20;;;;;;;;;;5046128;28;20618;-77
2022/03/12 10:11:02;;;;;;;0.13;0.13;;;;;;;;;;5033120;28;20690;-78
2022/03/12 10:13:29;;;;;;;0.10;0.10;;;;;;;;;;5027468;28;20697;-78
2022/03/12 10:15:59;;;;;;;0.10;0.10;;;9.20;87.80;;;;;;5034696;28;20622;-78
2022/03/12 10:18:28;;;;;;;0.30;0.30;;;9.50;85.70;;;;;;5030812;28;20671;-78
2022/03/12 10:20:58;;;;;;;0.20;0.20;;;9.80;99.90;;;;;;5030491;28;20696;-78
2022/03/12 10:23:31;;;;;;;0.10;0.10;;;9.30;98.40;;;;;;5026573;28;20652;-77
2022/03/12 10:25:59;;;;;;;0.20;0.20;;;9.40;98.60;;;;;;5044077;28;20691;-78
2022/03/12 10:28:29;;;;;;;0.10;0.10;;;9.50;98.40;;;;;;5024641;28;20717;-78
2022/03/12 10:31:01;;;;;;;0.10;0.10;;;9.40;97.50;;;;;;5045330;28;20629;-78
2022/03/12 10:33:30;;;;;;;0.10;0.10;;;9.30;97.70;;;;;;5025130;28;20669;-77
2022/03/12 10:36:12;;;;;;;0.10;0.10;;;9.30;97.70;;;;;;5028497;28;20683;-79
2022/03/12 10:38:48;;;;;;;0.20;0.20;;;9.30;97.30;;;;;;5044166;28;21170;-78
2022/03/12 10:41:17;;;;;;;0.10;0.10;;;9.70;93.90;;;;;;5029577;28;20691;-78
2022/03/12 10:43:47;;;;;;;0.10;0.10;;;9.70;92.60;;;;;;5048766;28;20665;-78
2022/03/12 10:46:24;;;;;;;0.10;0.10;;;9.80;92.30;;;;;;5026494;28;20686;-78
2022/03/12 10:48:57;;;;;;;0.10;0.10;;;9.70;91.80;;;;;;5031741;28;20622;-80
2022/03/12 10:51:26;;;;;;;0.10;0.10;;;;;;;;;;5031204;28;21065;-80
2022/03/12 10:54:04;;;;;;;0.10;0.10;;;;;;;;;;5033080;28;20701;-79
2022/03/12 10:56:42;;;;;;;0.10;0.10;;;;;;;;;;5019239;28;20654;-78
2022/03/12 10:59:19;;;;;;;0.10;0.10;;;;;;;;;;5029071;28;20736;-77
2022/03/12 11:01:48;;;;;;;0.10;0.10;;;;;;;;;;5031251;28;20625;-79
2022/03/12 11:04:22;;;;;;;0.20;0.20;;;;;;;;;;5030474;28;20238;-79
2022/03/12 11:06:51;;;;;;;0.10;0.10;;;9.80;92.80;;;;;;5030990;28;20636;-79
2022/03/12 11:09:33;;;;;;;0.10;0.10;;;;;;;;;;5031029;28;20618;-79
2022/03/12 11:12:02;;;;;;;0.20;0.20;;;;;;;;;;5028370;28;20204;-77
2022/03/12 11:14:31;;;;;;;0.10;0.10;;;;;;;;;;5026519;28;20226;-78
2022/03/12 11:17:04;;;;;;;0.10;0.10;;;10.80;84.80;;;;;;5030418;28;20298;-79
2022/03/12 11:19:42;;;;;;;0.10;0.10;;;11.30;85.20;;;;;;5025773;28;20207;-79
2022/03/12 11:22:18;;;;;;;0.10;0.10;;;11.30;85.50;;;;;;5048059;28;20199;-78
2022/03/12 11:24:50;;;;;;;0.10;0.10;;;11.40;85.10;;;;;;5027295;28;20223;-78
2022/03/12 11:27:29;;;;;;;0.10;0.10;;;;;;;;;;5030455;28;20199;-79
2022/03/12 11:29:58;;;;;;;0.20;0.20;;;;;;;;;;5028437;28;20191;-79
2022/03/12 11:32:35;;;;;;;0.10;0.10;;;;;;;;;;5030424;28;20203;-78
2022/03/12 11:35:08;;;;;;;0.20;0.20;;;;;;;;;;5024705;28;20199;-78
2022/03/12 11:37:41;;;;;;;0.10;0.10;;;;;;;;;;5027399;28;20226;-78
2022/03/12 11:40:14;;;;;;;0.10;0.10;;;;;;;;;;5028503;28;20204;-79
2022/03/12 11:42:44;;;;;;;0.10;0.10;;;;;;;;;;5047487;28;20231;-78
2022/03/12 11:45:15;;;;;;;0.20;0.20;;;;;;;;;;5027427;28;20195;-79
2022/03/12 11:47:43;;;;;;;0.17;0.17;;;;;;;;;;5047829;28;20317;-79
2022/03/12 11:50:18;;;;;;;0.10;0.10;;;;;;;;;;5029884;28;20203;-79
2022/03/12 11:52:46;;;;;;;0.10;0.10;;;;;;;;;;5029596;28;20282;-79
2022/03/12 11:55:20;;;;;;;0.20;0.20;;;;;;;;;;5046670;28;20239;-79
2022/03/12 11:57:51;;;;;;;0.10;0.10;;;;;;;;;;5047247;28;20222;-79
2022/03/12 12:00:22;;;;;;;0.10;0.10;;;;;;;;;;5028085;28;20207;-79
2022/03/12 12:02:56;;;;;;;0.10;0.10;;;;;;;;;;5026460;28;20229;-79
2022/03/12 12:05:27;;;;;;;0.10;0.10;;;;;;;;;;5028693;28;20195;-79
2022/03/12 12:07:56;;;;;;;0.10;0.10;;;;;;;;;;5042568;28;20191;-79
2022/03/12 12:10:41;;;;;;;0.10;0.10;;;;;;;;;;5028959;28;20657;-78
2022/03/12 12:13:13;;;;;;;0.10;0.10;;;;;;;;;;5028718;28;20223;-79
2022/03/12 12:15:45;;;;;;;0.10;0.10;;;;;;;;;;5027562;28;20253;-79
2022/03/12 12:18:14;;;;;;;0.10;0.10;;;;;;;;;;5025563;28;20227;-79
2022/03/12 12:20:44;;;;;;;0.10;0.10;;;;;;;;;;5029107;28;20282;-80
2022/03/12 12:23:15;;;;;;;0.10;0.10;;;;;;;;;;5028359;28;20226;-79
2022/03/12 12:25:44;;;;;;;0.10;0.10;;;;;;;;;;5027291;28;20723;-78
2022/03/12 12:28:18;;;;;;;0.10;0.10;;;;;;;;;;5028440;28;20203;-78
2022/03/12 12:30:49;;;;;;;0.10;0.10;;;;;;;;;;5028282;28;20225;-79
2022/03/12 12:33:22;;;;;;;0.10;0.10;;;;;;;;;;5045403;28;20227;-78
2022/03/12 12:36:12;;;;;;;0.10;0.10;;;11.60;85.20;;;;;;5027767;28;20198;-78
2022/03/12 12:39:01;;;;;;;0.10;0.10;;;12.40;80.80;;;;;;5027897;28;20310;-79
2022/03/12 12:41:52;;;;;;;0.10;0.10;;;12.40;80.10;;;;;;5025296;28;20199;-79
2022/03/12 12:44:43;;;;;;;0.10;0.10;;;12.30;79.60;;;;;;5024832;28;20238;-78
2022/03/12 12:47:17;;;;;;;0.10;0.10;;;12.40;81.00;;;;;;5020598;28;20200;-78
2022/03/12 12:53:17;;;;;;;0.10;0.10;;;12.20;78.80;;;;;;5025362;28;20191;-78
2022/03/12 12:55:46;;;;;;;0.10;0.10;;;12.20;78.80;;;;;;5027126;28;20206;-78
2022/03/12 12:58:18;;;;;;;0.10;0.10;;;12.30;79.80;;;;;;5025830;28;20231;-78
2022/03/12 13:00:49;;;;;;;0.10;0.10;;;12.30;79.50;;;;;;5026429;28;20276;-77
2022/03/12 13:03:22;;;;;;;0.10;0.10;;;12.40;78.40;;;;;;5027212;28;20234;-78
2022/03/12 13:05:54;;;;;;;0.10;0.10;;;12.50;78.10;;;;;;5028476;28;20210;-78
2022/03/12 13:08:25;;;;;;;0.20;0.20;;;12.50;77.80;;;;;;5027737;28;20199;-78
2022/03/12 13:10:57;;;;;;;0.10;0.10;;;12.50;77.50;;;;;;5041541;28;20203;-78
2022/03/12 13:13:34;;;;;;;0.10;0.10;;;12.60;79.60;;;;;;5026964;28;20218;-78
2022/03/12 13:16:19;;;;;;;0.10;0.10;;;12.40;77.50;;;;;;5014988;28;20223;-77
2022/03/12 13:18:48;;;;;;;0.10;0.10;;;12.40;78.30;;;;;;5025378;28;20345;-78
2022/03/12 13:21:35;;;;;;;0.10;0.10;;;12.40;79.20;;;;;;5024518;28;20708;-79
2022/03/12 13:24:10;;;;;;;0.10;0.10;;;12.40;77.10;;;;;;5025464;28;20226;-78
2022/03/12 13:26:42;;;;;;;0.10;0.10;;;12.30;77.40;;;;;;5025890;28;20213;-78
2022/03/12 13:29:20;;;;;;;0.10;0.10;;;12.20;76.00;;;;;;5043334;28;20610;-78
2022/03/12 13:31:54;;;;;;;0.10;0.10;;;12.20;77.30;;;;;;5027444;28;20211;-78
2022/03/12 13:34:25;;;;;;;0.10;0.10;;;12.10;75.90;;;;;;5025822;28;20224;-78
2022/03/12 13:36:59;;;;;;;0.10;0.10;;;11.90;75.10;;;;;;5027806;28;20207;-79
2022/03/12 13:39:36;;;;;;;0.00;0.00;;;12.00;76.50;;;;;;5023443;28;20206;-79
2022/03/12 13:42:18;;;;;;;0.10;0.10;;;12.00;76.50;;;;;;5027194;28;20265;-78
2022/03/12 13:44:57;;;;;;;0.10;0.10;;;11.90;75.60;;;;;;5045374;28;20218;-79